MDA302 RCBS-RCKH
Flight info
| Callsign | MDA302 |
|---|---|
| Flight time | 0h 32m |
| Altitude | 23000 |
| Route | CUBON1A CUBON/N0352F230 T15 LUGIA LUGIA1A |
| Aircraft | B738/M-ABDE3FGJ3J4LOP1RVWY/LB2 |
Departure
| Time | 2026-04-30 12:39 |
|---|---|
| Airport | Kinmen Airport (RCBS) |
Arrival
| Time | 2026-04-30 13:12 |
|---|---|
| Airport | Kaohsiung International Airport (RCKH) |
| Time | Latitude | Longitude | Altitude | Speed | Heading |
|---|---|---|---|---|---|
| 2026-04-30 12:08 | 24.43552 | 118.36925 | 44 ft | 0 kts | 331° |
| 2026-04-30 12:27 | 24.43545 | 118.36929 | 44 ft | 2 kts | 331° |
| 2026-04-30 12:27 | 24.43532 | 118.36938 | 43 ft | 2 kts | 330° |
| 2026-04-30 12:28 | 24.43519 | 118.36945 | 42 ft | 2 kts | 330° |
| 2026-04-30 12:28 | 24.43505 | 118.36954 | 42 ft | 2 kts | 330° |
| 2026-04-30 12:28 | 24.43492 | 118.36961 | 41 ft | 2 kts | 330° |
| 2026-04-30 12:28 | 24.43479 | 118.36970 | 40 ft | 2 kts | 302° |
| 2026-04-30 12:29 | 24.43475 | 118.36987 | 40 ft | 2 kts | 264° |
| 2026-04-30 12:29 | 24.43480 | 118.37001 | 40 ft | 2 kts | 236° |
| 2026-04-30 12:29 | 24.43485 | 118.37010 | 40 ft | 1 kts | 244° |
| 2026-04-30 12:29 | 24.43485 | 118.37011 | 40 ft | 0 kts | 244° |
| 2026-04-30 12:31 | 24.43483 | 118.37006 | 40 ft | 2 kts | 244° |
| 2026-04-30 12:31 | 24.43473 | 118.36985 | 40 ft | 3 kts | 244° |
| 2026-04-30 12:31 | 24.43463 | 118.36961 | 40 ft | 3 kts | 243° |
| 2026-04-30 12:32 | 24.43445 | 118.36923 | 40 ft | 7 kts | 242° |
| 2026-04-30 12:32 | 24.43417 | 118.36862 | 40 ft | 10 kts | 243° |
| 2026-04-30 12:32 | 24.43379 | 118.36778 | 41 ft | 13 kts | 243° |
| 2026-04-30 12:32 | 24.43331 | 118.36674 | 40 ft | 17 kts | 243° |
| 2026-04-30 12:33 | 24.43278 | 118.36559 | 42 ft | 15 kts | 243° |
| 2026-04-30 12:33 | 24.43229 | 118.36452 | 42 ft | 15 kts | 243° |
| 2026-04-30 12:33 | 24.43181 | 118.36345 | 41 ft | 15 kts | 242° |
| 2026-04-30 12:33 | 24.43134 | 118.36243 | 43 ft | 13 kts | 243° |
| 2026-04-30 12:34 | 24.43090 | 118.36149 | 43 ft | 15 kts | 244° |
| 2026-04-30 12:34 | 24.43036 | 118.36029 | 42 ft | 19 kts | 244° |
| 2026-04-30 12:34 | 24.42974 | 118.35894 | 43 ft | 19 kts | 244° |
| 2026-04-30 12:34 | 24.42920 | 118.35778 | 46 ft | 9 kts | 243° |
| 2026-04-30 12:35 | 24.42870 | 118.35745 | 45 ft | 9 kts | 170° |
| 2026-04-30 12:35 | 24.42798 | 118.35783 | 40 ft | 13 kts | 157° |
| 2026-04-30 12:35 | 24.42732 | 118.35758 | 37 ft | 9 kts | 242° |
| 2026-04-30 12:35 | 24.42705 | 118.35695 | 38 ft | 8 kts | 243° |
| 2026-04-30 12:36 | 24.42679 | 118.35640 | 39 ft | 7 kts | 244° |
| 2026-04-30 12:36 | 24.42653 | 118.35583 | 41 ft | 9 kts | 243° |
| 2026-04-30 12:36 | 24.42617 | 118.35502 | 44 ft | 13 kts | 243° |
| 2026-04-30 12:36 | 24.42568 | 118.35394 | 47 ft | 17 kts | 244° |
| 2026-04-30 12:37 | 24.42509 | 118.35265 | 51 ft | 20 kts | 243° |
| 2026-04-30 12:37 | 24.42445 | 118.35127 | 56 ft | 17 kts | 243° |
| 2026-04-30 12:37 | 24.42379 | 118.35055 | 56 ft | 9 kts | 227° |
| 2026-04-30 12:37 | 24.42376 | 118.35012 | 58 ft | 2 kts | 317° |
| 2026-04-30 12:38 | 24.42382 | 118.35010 | 59 ft | 0 kts | 4° |
| 2026-04-30 12:38 | 24.42390 | 118.35023 | 58 ft | 5 kts | 55° |
| 2026-04-30 12:38 | 24.42441 | 118.35119 | 56 ft | 30 kts | 63° |
| 2026-04-30 12:38 | 24.42653 | 118.35583 | 41 ft | 102 kts | 63° |
| 2026-04-30 12:39 | 24.43057 | 118.36472 | 51 ft | 154 kts | 63° |
| 2026-04-30 12:39 | 24.43545 | 118.37528 | 650 ft | 156 kts | 60° |
| 2026-04-30 12:39 | 24.43901 | 118.38624 | 1352 ft | 158 kts | 85° |
| 2026-04-30 12:39 | 24.43552 | 118.39812 | 1864 ft | 176 kts | 117° |
| 2026-04-30 12:40 | 24.42849 | 118.40977 | 2327 ft | 189 kts | 117° |
| 2026-04-30 12:40 | 24.42185 | 118.42265 | 2741 ft | 204 kts | 114° |
| 2026-04-30 12:40 | 24.41489 | 118.43702 | 3163 ft | 224 kts | 115° |
| 2026-04-30 12:40 | 24.40713 | 118.45269 | 3642 ft | 240 kts | 116° |
| 2026-04-30 12:41 | 24.39886 | 118.46913 | 4167 ft | 255 kts | 117° |
| 2026-04-30 12:41 | 24.39014 | 118.48642 | 4766 ft | 267 kts | 117° |
| 2026-04-30 12:41 | 24.38091 | 118.50475 | 5315 ft | 281 kts | 118° |
| 2026-04-30 12:41 | 24.37148 | 118.52351 | 6089 ft | 285 kts | 119° |
| 2026-04-30 12:42 | 24.36192 | 118.54250 | 6833 ft | 290 kts | 120° |
| 2026-04-30 12:42 | 24.35211 | 118.56201 | 7591 ft | 295 kts | 120° |
| 2026-04-30 12:42 | 24.34227 | 118.58165 | 8382 ft | 299 kts | 120° |
| 2026-04-30 12:42 | 24.33219 | 118.60176 | 9144 ft | 305 kts | 120° |
| 2026-04-30 12:43 | 24.32186 | 118.62238 | 9924 ft | 310 kts | 120° |
| 2026-04-30 12:43 | 24.31147 | 118.64311 | 10566 ft | 321 kts | 120° |
| 2026-04-30 12:43 | 24.29978 | 118.66479 | 11026 ft | 337 kts | 127° |
| 2026-04-30 12:43 | 24.28450 | 118.68446 | 11608 ft | 345 kts | 138° |
| 2026-04-30 12:44 | 24.26647 | 118.70222 | 12374 ft | 348 kts | 143° |
| 2026-04-30 12:44 | 24.24776 | 118.71914 | 13097 ft | 353 kts | 143° |
| 2026-04-30 12:44 | 24.22880 | 118.73618 | 13841 ft | 358 kts | 143° |
| 2026-04-30 12:44 | 24.20950 | 118.75388 | 14574 ft | 363 kts | 142° |
| 2026-04-30 12:45 | 24.19009 | 118.77205 | 15313 ft | 369 kts | 142° |
| 2026-04-30 12:45 | 24.17084 | 118.79034 | 16045 ft | 373 kts | 142° |
| 2026-04-30 12:45 | 24.15113 | 118.80920 | 16762 ft | 378 kts | 142° |
| 2026-04-30 12:45 | 24.13136 | 118.82816 | 17435 ft | 382 kts | 142° |
| 2026-04-30 12:46 | 24.11104 | 118.84740 | 18142 ft | 386 kts | 143° |
| 2026-04-30 12:46 | 24.08993 | 118.86520 | 18801 ft | 388 kts | 148° |
| 2026-04-30 12:46 | 24.06715 | 118.88165 | 19481 ft | 391 kts | 151° |
| 2026-04-30 12:46 | 24.04370 | 118.89726 | 20141 ft | 394 kts | 152° |
| 2026-04-30 12:47 | 24.02019 | 118.91248 | 20758 ft | 398 kts | 152° |
| 2026-04-30 12:47 | 23.99621 | 118.92796 | 21358 ft | 402 kts | 152° |
| 2026-04-30 12:47 | 23.97210 | 118.94406 | 21953 ft | 407 kts | 149° |
| 2026-04-30 12:47 | 23.94931 | 118.96273 | 22484 ft | 415 kts | 140° |
| 2026-04-30 12:48 | 23.92913 | 118.98568 | 22952 ft | 421 kts | 131° |
| 2026-04-30 12:48 | 23.91110 | 119.01099 | 23034 ft | 422 kts | 127° |
| 2026-04-30 12:48 | 23.89428 | 119.03733 | 23041 ft | 420 kts | 125° |
| 2026-04-30 12:48 | 23.87815 | 119.06366 | 23041 ft | 419 kts | 125° |
| 2026-04-30 12:49 | 23.86180 | 119.09048 | 23042 ft | 420 kts | 125° |
| 2026-04-30 12:49 | 23.84562 | 119.11670 | 23042 ft | 421 kts | 126° |
| 2026-04-30 12:49 | 23.82910 | 119.14307 | 23040 ft | 422 kts | 126° |
| 2026-04-30 12:49 | 23.81227 | 119.16959 | 23039 ft | 422 kts | 127° |
| 2026-04-30 12:50 | 23.79532 | 119.19601 | 23036 ft | 422 kts | 127° |
| 2026-04-30 12:50 | 23.77865 | 119.22185 | 23032 ft | 422 kts | 127° |
| 2026-04-30 12:50 | 23.76160 | 119.24815 | 23025 ft | 423 kts | 127° |
| 2026-04-30 12:50 | 23.74459 | 119.27433 | 23028 ft | 422 kts | 127° |
| 2026-04-30 12:51 | 23.72764 | 119.30009 | 23032 ft | 421 kts | 128° |
| 2026-04-30 12:51 | 23.70929 | 119.32526 | 23031 ft | 420 kts | 133° |
| 2026-04-30 12:51 | 23.68982 | 119.34869 | 23024 ft | 419 kts | 135° |
| 2026-04-30 12:51 | 23.66936 | 119.37167 | 23025 ft | 419 kts | 137° |
| 2026-04-30 12:52 | 23.64873 | 119.39423 | 23023 ft | 419 kts | 137° |
| 2026-04-30 12:52 | 23.62809 | 119.41667 | 23020 ft | 412 kts | 137° |
| 2026-04-30 12:52 | 23.60841 | 119.43816 | 23016 ft | 395 kts | 137° |
| 2026-04-30 12:52 | 23.58938 | 119.45907 | 23023 ft | 379 kts | 137° |
| 2026-04-30 12:53 | 23.57118 | 119.47914 | 23013 ft | 373 kts | 137° |
| 2026-04-30 12:53 | 23.55257 | 119.49966 | 22784 ft | 378 kts | 137° |
| 2026-04-30 12:53 | 23.53417 | 119.51999 | 22384 ft | 377 kts | 137° |
| 2026-04-30 12:53 | 23.51588 | 119.54025 | 21945 ft | 374 kts | 137° |
| 2026-04-30 12:54 | 23.49768 | 119.56046 | 21504 ft | 372 kts | 137° |
| 2026-04-30 12:54 | 23.47969 | 119.58045 | 21067 ft | 370 kts | 137° |
| 2026-04-30 12:54 | 23.46175 | 119.60040 | 20631 ft | 367 kts | 137° |
| 2026-04-30 12:54 | 23.44404 | 119.62009 | 20194 ft | 365 kts | 137° |
| 2026-04-30 12:55 | 23.42635 | 119.63975 | 19762 ft | 362 kts | 137° |
| 2026-04-30 12:55 | 23.40878 | 119.65927 | 19342 ft | 359 kts | 137° |
| 2026-04-30 12:55 | 23.39119 | 119.67882 | 18903 ft | 356 kts | 137° |
| 2026-04-30 12:55 | 23.37408 | 119.69782 | 18484 ft | 353 kts | 137° |
| 2026-04-30 12:56 | 23.35690 | 119.71692 | 18062 ft | 350 kts | 138° |
| 2026-04-30 12:56 | 23.34002 | 119.73566 | 17650 ft | 347 kts | 138° |
| 2026-04-30 12:56 | 23.32310 | 119.75442 | 17237 ft | 344 kts | 138° |
| 2026-04-30 12:56 | 23.30643 | 119.77290 | 16822 ft | 341 kts | 138° |
| 2026-04-30 12:57 | 23.28984 | 119.79089 | 16421 ft | 337 kts | 140° |
| 2026-04-30 12:57 | 23.27210 | 119.80761 | 16014 ft | 331 kts | 147° |
| 2026-04-30 12:57 | 23.25335 | 119.82136 | 15618 ft | 326 kts | 153° |
| 2026-04-30 12:57 | 23.23367 | 119.83372 | 15211 ft | 322 kts | 155° |
| 2026-04-30 12:58 | 23.21418 | 119.84538 | 14822 ft | 318 kts | 155° |
| 2026-04-30 12:58 | 23.19497 | 119.85694 | 14436 ft | 315 kts | 155° |
| 2026-04-30 12:58 | 23.17580 | 119.86868 | 14052 ft | 312 kts | 154° |
| 2026-04-30 12:58 | 23.15714 | 119.88031 | 13676 ft | 309 kts | 154° |
| 2026-04-30 12:59 | 23.13860 | 119.89195 | 13286 ft | 306 kts | 154° |
| 2026-04-30 12:59 | 23.12032 | 119.90346 | 12912 ft | 302 kts | 154° |
| 2026-04-30 12:59 | 23.10212 | 119.91493 | 12589 ft | 297 kts | 154° |
| 2026-04-30 12:59 | 23.08459 | 119.92601 | 12386 ft | 288 kts | 154° |
| 2026-04-30 13:00 | 23.06696 | 119.93708 | 12068 ft | 299 kts | 154° |
| 2026-04-30 13:00 | 23.04864 | 119.94853 | 11661 ft | 306 kts | 154° |
| 2026-04-30 13:00 | 23.03034 | 119.96002 | 11292 ft | 302 kts | 154° |
| 2026-04-30 13:00 | 23.01240 | 119.97134 | 10929 ft | 298 kts | 154° |
| 2026-04-30 13:01 | 22.99433 | 119.98272 | 10555 ft | 296 kts | 154° |
| 2026-04-30 13:01 | 22.97660 | 119.99387 | 10172 ft | 293 kts | 153° |
| 2026-04-30 13:01 | 22.95903 | 120.00491 | 9884 ft | 287 kts | 153° |
| 2026-04-30 13:01 | 22.94208 | 120.01557 | 9581 ft | 282 kts | 154° |
| 2026-04-30 13:02 | 22.92503 | 120.02628 | 9227 ft | 280 kts | 153° |
| 2026-04-30 13:02 | 22.90814 | 120.03687 | 8883 ft | 277 kts | 153° |
| 2026-04-30 13:02 | 22.89152 | 120.04712 | 8543 ft | 273 kts | 156° |
| 2026-04-30 13:02 | 22.87410 | 120.05470 | 8221 ft | 267 kts | 169° |
| 2026-04-30 13:03 | 22.85570 | 120.05782 | 7878 ft | 263 kts | 177° |
| 2026-04-30 13:03 | 22.83752 | 120.05948 | 7528 ft | 261 kts | 178° |
| 2026-04-30 13:03 | 22.81937 | 120.06123 | 7194 ft | 259 kts | 176° |
| 2026-04-30 13:03 | 22.80157 | 120.06330 | 6869 ft | 257 kts | 175° |
| 2026-04-30 13:04 | 22.78389 | 120.06561 | 6551 ft | 255 kts | 175° |
| 2026-04-30 13:04 | 22.76608 | 120.06800 | 6200 ft | 258 kts | 174° |
| 2026-04-30 13:04 | 22.74803 | 120.07042 | 5866 ft | 264 kts | 174° |
| 2026-04-30 13:04 | 22.72964 | 120.07288 | 5516 ft | 270 kts | 174° |
| 2026-04-30 13:05 | 22.71047 | 120.07543 | 5163 ft | 276 kts | 174° |
| 2026-04-30 13:05 | 22.69162 | 120.07796 | 4978 ft | 266 kts | 174° |
| 2026-04-30 13:05 | 22.67357 | 120.08039 | 4741 ft | 260 kts | 174° |
| 2026-04-30 13:06 | 22.63763 | 120.08524 | 4074 ft | 254 kts | 173° |
| 2026-04-30 13:06 | 22.62036 | 120.08758 | 3943 ft | 244 kts | 172° |
| 2026-04-30 13:06 | 22.60415 | 120.09140 | 3789 ft | 236 kts | 160° |
| 2026-04-30 13:06 | 22.59094 | 120.10111 | 3637 ft | 229 kts | 128° |
| 2026-04-30 13:07 | 22.58473 | 120.11656 | 3526 ft | 219 kts | 100° |
| 2026-04-30 13:07 | 22.58376 | 120.13255 | 3442 ft | 207 kts | 92° |
| 2026-04-30 13:07 | 22.58343 | 120.14757 | 3355 ft | 189 kts | 93° |
| 2026-04-30 13:07 | 22.58286 | 120.16122 | 3143 ft | 175 kts | 94° |
| 2026-04-30 13:08 | 22.58238 | 120.17400 | 2933 ft | 165 kts | 92° |
| 2026-04-30 13:08 | 22.58205 | 120.18624 | 2677 ft | 159 kts | 91° |
| 2026-04-30 13:08 | 22.58170 | 120.19802 | 2480 ft | 157 kts | 90° |
| 2026-04-30 13:08 | 22.58133 | 120.20991 | 2278 ft | 154 kts | 90° |
| 2026-04-30 13:09 | 22.58100 | 120.22103 | 2076 ft | 145 kts | 89° |
| 2026-04-30 13:09 | 22.58067 | 120.23203 | 1879 ft | 145 kts | 89° |
| 2026-04-30 13:09 | 22.58034 | 120.24282 | 1686 ft | 143 kts | 88° |
| 2026-04-30 13:09 | 22.58002 | 120.25373 | 1499 ft | 145 kts | 88° |
| 2026-04-30 13:10 | 22.57969 | 120.26451 | 1313 ft | 144 kts | 89° |
| 2026-04-30 13:10 | 22.57936 | 120.27533 | 1123 ft | 145 kts | 89° |
| 2026-04-30 13:10 | 22.57903 | 120.28625 | 931 ft | 145 kts | 89° |
| 2026-04-30 13:10 | 22.57874 | 120.29731 | 748 ft | 146 kts | 88° |
| 2026-04-30 13:11 | 22.57840 | 120.30824 | 564 ft | 147 kts | 90° |
| 2026-04-30 13:11 | 22.57798 | 120.31920 | 380 ft | 146 kts | 89° |
| 2026-04-30 13:11 | 22.57765 | 120.33029 | 189 ft | 147 kts | 89° |
| 2026-04-30 13:11 | 22.57730 | 120.34133 | 40 ft | 144 kts | 89° |
| 2026-04-30 13:12 | 22.57706 | 120.35068 | 33 ft | 96 kts | 91° |
| 2026-04-30 13:12 | 22.57689 | 120.35608 | 31 ft | 46 kts | 92° |
| 2026-04-30 13:12 | 22.57678 | 120.35862 | 30 ft | 19 kts | 99° |
| 2026-04-30 13:13 | 22.57570 | 120.35915 | 31 ft | 6 kts | 183° |
| 2026-04-30 13:13 | 22.57531 | 120.35909 | 32 ft | 4 kts | 202° |
| 2026-04-30 13:13 | 22.57513 | 120.35858 | 33 ft | 4 kts | 270° |
| 2026-04-30 13:14 | 22.57514 | 120.35804 | 34 ft | 10 kts | 271° |
| 2026-04-30 13:14 | 22.57518 | 120.35706 | 34 ft | 16 kts | 272° |
| 2026-04-30 13:14 | 22.57527 | 120.35416 | 34 ft | 19 kts | 271° |
| 2026-04-30 13:15 | 22.57532 | 120.35270 | 34 ft | 18 kts | 270° |
| 2026-04-30 13:15 | 22.57540 | 120.34992 | 34 ft | 18 kts | 272° |
| 2026-04-30 13:15 | 22.57544 | 120.34858 | 34 ft | 17 kts | 272° |
| 2026-04-30 13:16 | 22.57548 | 120.34727 | 34 ft | 17 kts | 271° |
| 2026-04-30 13:16 | 22.57543 | 120.34649 | 34 ft | 9 kts | 248° |
| 2026-04-30 13:16 | 22.57493 | 120.34617 | 33 ft | 9 kts | 179° |
| 2026-04-30 13:17 | 22.57371 | 120.34613 | 33 ft | 8 kts | 181° |
| 2026-04-30 13:17 | 22.57314 | 120.34611 | 33 ft | 7 kts | 181° |
| 2026-04-30 13:17 | 22.57214 | 120.34595 | 33 ft | 6 kts | 236° |
| 2026-04-30 13:18 | 22.57210 | 120.34551 | 33 ft | 5 kts | 270° |
| 2026-04-30 13:18 | 22.57212 | 120.34471 | 33 ft | 4 kts | 272° |
| 2026-04-30 13:18 | 22.57214 | 120.34436 | 33 ft | 4 kts | 272° |
| 2026-04-30 13:19 | 22.57214 | 120.34403 | 33 ft | 4 kts | 265° |
| 2026-04-30 13:19 | 22.57200 | 120.34381 | 33 ft | 3 kts | 196° |
| 2026-04-30 13:19 | 22.57179 | 120.34378 | 34 ft | 2 kts | 184° |
| 2026-04-30 13:19 | 22.57161 | 120.34377 | 34 ft | 2 kts | 182° |
| 2026-04-30 13:20 | 22.57154 | 120.34377 | 34 ft | 0 kts | 181° |